Disclaimer

Please do not use the information listed here in-flight or in-navigation, as they are not provided to us by the airports but are provided by volunteers, so they might be outdated.

Search


Regions


Airport information page

Radio informations:
Tower (TWR) - 125.05 MHz
Ground (GND) - 240.425 MHz
Automatic Terminal Information Service (ATIS) - 135.675 MHz
Approach (APP) - 119.375 MHz

Airport informations:
Latitude: 53° 01' 49.26" N
Longitude: 000° 28' 59.67" W
Elevation: 218 feet - 66 meters
Operating hours: Remarks
Operating agency: Military
Timezone: UTC 0(+1DT) - Last Sunday in March to last Sunday in October
Fuel: Jet A1+, Jet A1 with icing inhibitor.

100/130 octane gasoline, leaded, MIL-L-5572F (GREEN)

Runway information:
01/19 - 4803 x 147 feet< - >1464 x 45 meters
09/27 - 6831 x 147 feet< - >2082 x 45 meters
09R/27L - 2354 x 131 feet< - >717 x 40 meters

Recent METARs:
EGYD 202250Z AUTO 08006KT 4000 // BKN007/// 03/03 Q1007
EGYD 202250Z AUTO 08006KT 4000 // BKN007/// 03/03 Q1007
EGYD 202350Z AUTO 05008KT 4100 // FEW006/// BKN019/// BKN026/// 03/02 Q1007

Airport on the map: